sensor_id;sensor_type;location;lat;lon;timestamp;pressure;altitude;pressure_sealevel;temperature;humidity
32109;BME280;18624;50.042;8.436;2023-04-07T00:01:05;100324.31;;;6.24;100.00
32109;BME280;18624;50.042;8.436;2023-04-07T00:03:32;100272.47;;;5.87;100.00
32109;BME280;18624;50.042;8.436;2023-04-07T00:05:59;100354.44;;;6.55;100.00
32109;BME280;18624;50.042;8.436;2023-04-07T00:08:25;100440.41;;;7.08;100.00
32109;BME280;18624;50.042;8.436;2023-04-07T00:10:52;100452.00;;;7.16;100.00
32109;BME280;18624;50.042;8.436;2023-04-07T00:13:18;100452.34;;;7.21;100.00
32109;BME280;18624;50.042;8.436;2023-04-07T00:15:44;100360.19;;;6.64;100.00
32109;BME280;18624;50.042;8.436;2023-04-07T00:18:11;100424.75;;;7.16;100.00
32109;BME280;18624;50.042;8.436;2023-04-07T00:20:37;100428.16;;;7.27;100.00
32109;BME280;18624;50.042;8.436;2023-04-07T00:23:04;100185.16;;;5.70;100.00
32109;BME280;18624;50.042;8.436;2023-04-07T00:25:30;100467.66;;;7.49;100.00
32109;BME280;18624;50.042;8.436;2023-04-07T00:27:56;100354.19;;;6.83;100.00
32109;BME280;18624;50.042;8.436;2023-04-07T00:30:23;100153.06;;;5.47;100.00
32109;BME280;18624;50.042;8.436;2023-04-07T00:32:49;100386.97;;;7.18;100.00
32109;BME280;18624;50.042;8.436;2023-04-07T00:35:17;100421.03;;;7.36;100.00
32109;BME280;18624;50.042;8.436;2023-04-07T00:37:43;100307.34;;;6.58;100.00
32109;BME280;18624;50.042;8.436;2023-04-07T00:40:10;100419.53;;;7.32;100.00
32109;BME280;18624;50.042;8.436;2023-04-07T00:42:36;100361.88;;;6.92;100.00
32109;BME280;18624;50.042;8.436;2023-04-07T00:45:03;100343.38;;;6.76;100.00
32109;BME280;18624;50.042;8.436;2023-04-07T00:47:30;100208.31;;;5.93;100.00
32109;BME280;18624;50.042;8.436;2023-04-07T00:49:57;100445.56;;;7.40;100.00
32109;BME280;18624;50.042;8.436;2023-04-07T00:52:23;100368.84;;;6.97;100.00
32109;BME280;18624;50.042;8.436;2023-04-07T00:54:54;100430.38;;;7.39;100.00
32109;BME280;18624;50.042;8.436;2023-04-07T00:57:21;100368.78;;;7.04;100.00
32109;BME280;18624;50.042;8.436;2023-04-07T00:59:51;100390.09;;;7.16;100.00
32109;BME280;18624;50.042;8.436;2023-04-07T01:02:23;100245.38;;;6.24;100.00
32109;BME280;18624;50.042;8.436;2023-04-07T01:05:04;100373.03;;;7.08;100.00
32109;BME280;18624;50.042;8.436;2023-04-07T01:07:57;100378.03;;;7.14;100.00
32109;BME280;18624;50.042;8.436;2023-04-07T01:11:07;100359.09;;;6.99;100.00
32109;BME280;18624;50.042;8.436;2023-04-07T01:13:34;100299.19;;;6.54;100.00
32109;BME280;18624;50.042;8.436;2023-04-07T01:16:33;100329.34;;;6.74;100.00
32109;BME280;18624;50.042;8.436;2023-04-07T01:21:39;100268.97;;;6.42;100.00
32109;BME280;18624;50.042;8.436;2023-04-07T01:24:26;100396.81;;;7.42;100.00
32109;BME280;18624;50.042;8.436;2023-04-07T01:27:08;100243.59;;;6.52;100.00
32109;BME280;18624;50.042;8.436;2023-04-07T01:29:41;100277.53;;;6.81;100.00
32109;BME280;18624;50.042;8.436;2023-04-07T01:32:13;100392.31;;;7.63;100.00
32109;BME280;18624;50.042;8.436;2023-04-07T01:34:41;100327.41;;;7.16;100.00
32109;BME280;18624;50.042;8.436;2023-04-07T01:37:09;100207.63;;;6.30;100.00
32109;BME280;18624;50.042;8.436;2023-04-07T01:39:37;100392.63;;;7.68;100.00
32109;BME280;18624;50.042;8.436;2023-04-07T01:42:04;100405.09;;;7.69;100.00
32109;BME280;18624;50.042;8.436;2023-04-07T01:44:32;100349.66;;;7.45;100.00
32109;BME280;18624;50.042;8.436;2023-04-07T01:47:00;100030.88;;;5.33;100.00
32109;BME280;18624;50.042;8.436;2023-04-07T01:49:29;100322.59;;;7.27;100.00
32109;BME280;18624;50.042;8.436;2023-04-07T01:51:56;100310.63;;;7.18;100.00
32109;BME280;18624;50.042;8.436;2023-04-07T01:54:24;100236.28;;;6.79;100.00
32109;BME280;18624;50.042;8.436;2023-04-07T01:56:51;100333.06;;;7.32;100.00
32109;BME280;18624;50.042;8.436;2023-04-07T01:59:18;100372.78;;;7.68;100.00
32109;BME280;18624;50.042;8.436;2023-04-07T02:01:45;100343.06;;;7.43;100.00
32109;BME280;18624;50.042;8.436;2023-04-07T02:04:20;100354.31;;;7.48;100.00
32109;BME280;18624;50.042;8.436;2023-04-07T02:06:51;100371.72;;;7.58;100.00
32109;BME280;18624;50.042;8.436;2023-04-07T02:09:24;100211.72;;;6.49;100.00
32109;BME280;18624;50.042;8.436;2023-04-07T02:11:54;100370.56;;;7.55;100.00
32109;BME280;18624;50.042;8.436;2023-04-07T02:14:24;100295.56;;;7.06;100.00
32109;BME280;18624;50.042;8.436;2023-04-07T02:17:02;100280.44;;;7.01;100.00
32109;BME280;18624;50.042;8.436;2023-04-07T02:19:29;100345.91;;;7.32;100.00
32109;BME280;18624;50.042;8.436;2023-04-07T02:21:56;100330.41;;;7.25;100.00
32109;BME280;18624;50.042;8.436;2023-04-07T02:24:23;100195.28;;;6.18;100.00
32109;BME280;18624;50.042;8.436;2023-04-07T02:26:49;100360.59;;;7.42;100.00
32109;BME280;18624;50.042;8.436;2023-04-07T02:29:16;100348.34;;;7.23;100.00
32109;BME280;18624;50.042;8.436;2023-04-07T02:31:42;100313.09;;;7.05;100.00
32109;BME280;18624;50.042;8.436;2023-04-07T02:34:09;100351.41;;;7.28;100.00
32109;BME280;18624;50.042;8.436;2023-04-07T02:36:37;100320.06;;;7.09;100.00
32109;BME280;18624;50.042;8.436;2023-04-07T02:39:05;100355.56;;;7.40;100.00
32109;BME280;18624;50.042;8.436;2023-04-07T02:41:31;100273.22;;;6.84;100.00
32109;BME280;18624;50.042;8.436;2023-04-07T02:43:58;100343.13;;;7.39;100.00
32109;BME280;18624;50.042;8.436;2023-04-07T02:46:25;100343.00;;;7.46;100.00
32109;BME280;18624;50.042;8.436;2023-04-07T02:48:51;100341.22;;;7.32;100.00
32109;BME280;18624;50.042;8.436;2023-04-07T02:51:17;99968.56;;;5.08;100.00
32109;BME280;18624;50.042;8.436;2023-04-07T02:53:44;100342.91;;;7.57;100.00
32109;BME280;18624;50.042;8.436;2023-04-07T02:56:10;100275.97;;;7.18;100.00
32109;BME280;18624;50.042;8.436;2023-04-07T02:58:37;100313.75;;;7.50;100.00
32109;BME280;18624;50.042;8.436;2023-04-07T03:01:04;100337.72;;;7.66;100.00
32109;BME280;18624;50.042;8.436;2023-04-07T03:03:32;100338.53;;;7.63;100.00
32109;BME280;18624;50.042;8.436;2023-04-07T03:06:13;100353.22;;;7.73;100.00
32109;BME280;18624;50.042;8.436;2023-04-07T03:08:57;100193.63;;;6.66;100.00
32109;BME280;18624;50.042;8.436;2023-04-07T03:11:23;100204.44;;;6.76;100.00
32109;BME280;18624;50.042;8.436;2023-04-07T03:13:50;100333.44;;;7.65;100.00
32109;BME280;18624;50.042;8.436;2023-04-07T03:16:17;100294.03;;;7.39;100.00
32109;BME280;18624;50.042;8.436;2023-04-07T03:18:56;100294.06;;;7.35;100.00
32109;BME280;18624;50.042;8.436;2023-04-07T03:21:24;100335.38;;;7.65;100.00
32109;BME280;18624;50.042;8.436;2023-04-07T03:23:50;100318.84;;;7.48;100.00
32109;BME280;18624;50.042;8.436;2023-04-07T03:26:18;100260.88;;;7.10;100.00
32109;BME280;18624;50.042;8.436;2023-04-07T03:28:44;100261.28;;;7.08;100.00
32109;BME280;18624;50.042;8.436;2023-04-07T03:31:12;100268.28;;;7.09;100.00
32109;BME280;18624;50.042;8.436;2023-04-07T03:33:38;100294.88;;;7.32;100.00
32109;BME280;18624;50.042;8.436;2023-04-07T03:36:06;100328.59;;;7.46;100.00
32109;BME280;18624;50.042;8.436;2023-04-07T03:38:34;100317.34;;;7.44;100.00
32109;BME280;18624;50.042;8.436;2023-04-07T03:41:02;100328.56;;;7.49;100.00
32109;BME280;18624;50.042;8.436;2023-04-07T03:43:29;100301.56;;;7.28;100.00
32109;BME280;18624;50.042;8.436;2023-04-07T03:45:55;100287.22;;;7.20;100.00
32109;BME280;18624;50.042;8.436;2023-04-07T03:48:23;100309.22;;;7.40;100.00
32109;BME280;18624;50.042;8.436;2023-04-07T03:51:01;100324.97;;;7.56;100.00
32109;BME280;18624;50.042;8.436;2023-04-07T03:53:29;100164.22;;;6.53;100.00
32109;BME280;18624;50.042;8.436;2023-04-07T03:55:57;100160.78;;;6.49;100.00
32109;BME280;18624;50.042;8.436;2023-04-07T03:58:43;100314.97;;;7.46;100.00
32109;BME280;18624;50.042;8.436;2023-04-07T04:01:17;100322.25;;;7.56;100.00
32109;BME280;18624;50.042;8.436;2023-04-07T04:03:48;100242.00;;;6.92;100.00
32109;BME280;18624;50.042;8.436;2023-04-07T04:06:20;100318.00;;;7.51;100.00
32109;BME280;18624;50.042;8.436;2023-04-07T04:08:48;100336.22;;;7.61;100.00
32109;BME280;18624;50.042;8.436;2023-04-07T04:11:14;100250.81;;;7.07;100.00
32109;BME280;18624;50.042;8.436;2023-04-07T04:13:49;100270.78;;;7.27;100.00
32109;BME280;18624;50.042;8.436;2023-04-07T04:16:16;100319.47;;;7.59;100.00
32109;BME280;18624;50.042;8.436;2023-04-07T04:18:43;100317.47;;;7.64;100.00
32109;BME280;18624;50.042;8.436;2023-04-07T04:21:12;100236.78;;;7.05;100.00
32109;BME280;18624;50.042;8.436;2023-04-07T04:23:41;100319.50;;;7.56;100.00
32109;BME280;18624;50.042;8.436;2023-04-07T04:26:07;100268.13;;;7.20;100.00
32109;BME280;18624;50.042;8.436;2023-04-07T04:28:35;100267.75;;;7.22;100.00
32109;BME280;18624;50.042;8.436;2023-04-07T04:31:06;100228.03;;;6.90;100.00
32109;BME280;18624;50.042;8.436;2023-04-07T04:33:38;100267.03;;;7.18;100.00
32109;BME280;18624;50.042;8.436;2023-04-07T04:36:04;100318.28;;;7.60;100.00
32109;BME280;18624;50.042;8.436;2023-04-07T04:38:31;100207.91;;;6.80;100.00
32109;BME280;18624;50.042;8.436;2023-04-07T04:41:18;100227.91;;;6.97;100.00
32109;BME280;18624;50.042;8.436;2023-04-07T04:43:47;100317.28;;;7.47;100.00
32109;BME280;18624;50.042;8.436;2023-04-07T04:46:18;100233.09;;;6.88;100.00
32109;BME280;18624;50.042;8.436;2023-04-07T04:48:46;100330.97;;;7.44;100.00
32109;BME280;18624;50.042;8.436;2023-04-07T04:51:15;100231.66;;;6.80;100.00
32109;BME280;18624;50.042;8.436;2023-04-07T04:53:44;100255.09;;;7.04;100.00
32109;BME280;18624;50.042;8.436;2023-04-07T04:56:11;100171.69;;;6.46;100.00
32109;BME280;18624;50.042;8.436;2023-04-07T04:58:40;100338.56;;;7.59;100.00
32109;BME280;18624;50.042;8.436;2023-04-07T05:01:16;100327.81;;;7.49;100.00
32109;BME280;18624;50.042;8.436;2023-04-07T05:03:51;100161.69;;;6.36;100.00
32109;BME280;18624;50.042;8.436;2023-04-07T05:06:25;100165.56;;;6.34;100.00
32109;BME280;18624;50.042;8.436;2023-04-07T05:08:55;100350.75;;;7.51;100.00
32109;BME280;18624;50.042;8.436;2023-04-07T05:11:26;100317.06;;;7.34;100.00
32109;BME280;18624;50.042;8.436;2023-04-07T05:13:54;100329.06;;;7.41;100.00
32109;BME280;18624;50.042;8.436;2023-04-07T05:16:22;100325.28;;;7.31;100.00
32109;BME280;18624;50.042;8.436;2023-04-07T05:18:49;100322.13;;;7.32;100.00
32109;BME280;18624;50.042;8.436;2023-04-07T05:21:16;100259.84;;;6.97;100.00
32109;BME280;18624;50.042;8.436;2023-04-07T05:23:45;100301.25;;;7.22;100.00
32109;BME280;18624;50.042;8.436;2023-04-07T05:26:12;100351.97;;;7.47;100.00
32109;BME280;18624;50.042;8.436;2023-04-07T05:28:39;100229.47;;;6.64;100.00
32109;BME280;18624;50.042;8.436;2023-04-07T05:31:12;100341.94;;;7.40;100.00
32109;BME280;18624;50.042;8.436;2023-04-07T05:33:39;100298.19;;;7.17;100.00
32109;BME280;18624;50.042;8.436;2023-04-07T05:36:06;100333.28;;;7.45;100.00
32109;BME280;18624;50.042;8.436;2023-04-07T05:38:33;100268.41;;;6.99;100.00
32109;BME280;18624;50.042;8.436;2023-04-07T05:41:07;100317.84;;;7.35;100.00
32109;BME280;18624;50.042;8.436;2023-04-07T05:43:35;100329.34;;;7.50;100.00
32109;BME280;18624;50.042;8.436;2023-04-07T05:46:01;100339.44;;;7.53;100.00
32109;BME280;18624;50.042;8.436;2023-04-07T05:48:29;100281.56;;;7.07;100.00
32109;BME280;18624;50.042;8.436;2023-04-07T05:50:55;100325.56;;;7.40;100.00
32109;BME280;18624;50.042;8.436;2023-04-07T05:53:22;100307.00;;;7.28;100.00
32109;BME280;18624;50.042;8.436;2023-04-07T05:55:48;100335.13;;;7.55;100.00
32109;BME280;18624;50.042;8.436;2023-04-07T05:58:38;100095.25;;;5.92;100.00
32109;BME280;18624;50.042;8.436;2023-04-07T06:01:05;100337.84;;;7.55;100.00
32109;BME280;18624;50.042;8.436;2023-04-07T06:03:31;100254.38;;;7.00;100.00
32109;BME280;18624;50.042;8.436;2023-04-07T06:06:17;100240.88;;;6.90;100.00
32109;BME280;18624;50.042;8.436;2023-04-07T06:08:44;100316.16;;;7.45;100.00
32109;BME280;18624;50.042;8.436;2023-04-07T06:11:11;100339.78;;;7.55;100.00
32109;BME280;18624;50.042;8.436;2023-04-07T06:13:37;100275.34;;;7.07;100.00
32109;BME280;18624;50.042;8.436;2023-04-07T06:16:04;100164.00;;;6.37;100.00
32109;BME280;18624;50.042;8.436;2023-04-07T06:18:31;100316.94;;;7.45;100.00
32109;BME280;18624;50.042;8.436;2023-04-07T06:20:58;100320.84;;;7.44;100.00
32109;BME280;18624;50.042;8.436;2023-04-07T06:23:24;100151.19;;;6.34;100.00
32109;BME280;18624;50.042;8.436;2023-04-07T06:25:51;100166.66;;;6.44;100.00
32109;BME280;18624;50.042;8.436;2023-04-07T06:28:18;100344.44;;;7.58;100.00
32109;BME280;18624;50.042;8.436;2023-04-07T06:30:45;100162.81;;;6.38;100.00
32109;BME280;18624;50.042;8.436;2023-04-07T06:33:13;100344.47;;;7.54;100.00
32109;BME280;18624;50.042;8.436;2023-04-07T06:35:40;100334.88;;;7.43;100.00
32109;BME280;18624;50.042;8.436;2023-04-07T06:38:06;100300.53;;;7.15;100.00
32109;BME280;18624;50.042;8.436;2023-04-07T06:40:33;100348.41;;;7.53;100.00
32109;BME280;18624;50.042;8.436;2023-04-07T06:42:59;100299.97;;;7.30;100.00
32109;BME280;18624;50.042;8.436;2023-04-07T06:45:34;100290.00;;;7.17;100.00
32109;BME280;18624;50.042;8.436;2023-04-07T06:48:01;100329.31;;;7.53;100.00
32109;BME280;18624;50.042;8.436;2023-04-07T06:50:27;100355.25;;;7.65;100.00
32109;BME280;18624;50.042;8.436;2023-04-07T06:52:54;100292.34;;;7.15;100.00
32109;BME280;18624;50.042;8.436;2023-04-07T06:55:20;100295.41;;;7.20;100.00
32109;BME280;18624;50.042;8.436;2023-04-07T06:57:47;100269.50;;;7.05;100.00
32109;BME280;18624;50.042;8.436;2023-04-07T07:00:13;100287.00;;;7.07;100.00
32109;BME280;18624;50.042;8.436;2023-04-07T07:02:40;100337.88;;;7.52;100.00
32109;BME280;18624;50.042;8.436;2023-04-07T07:05:06;100363.09;;;7.63;100.00
32109;BME280;18624;50.042;8.436;2023-04-07T07:07:33;100344.47;;;7.54;100.00
32109;BME280;18624;50.042;8.436;2023-04-07T07:09:59;100231.25;;;6.78;100.00
32109;BME280;18624;50.042;8.436;2023-04-07T07:12:26;100356.41;;;7.68;100.00
32109;BME280;18624;50.042;8.436;2023-04-07T07:14:53;100355.22;;;7.69;100.00
32109;BME280;18624;50.042;8.436;2023-04-07T07:17:19;100336.78;;;7.46;100.00
32109;BME280;18624;50.042;8.436;2023-04-07T07:19:46;100361.16;;;7.60;100.00
32109;BME280;18624;50.042;8.436;2023-04-07T07:22:12;100319.84;;;7.31;100.00
32109;BME280;18624;50.042;8.436;2023-04-07T07:24:39;100178.50;;;6.27;100.00
32109;BME280;18624;50.042;8.436;2023-04-07T07:27:05;100345.88;;;7.35;100.00
32109;BME280;18624;50.042;8.436;2023-04-07T07:29:31;100240.69;;;6.70;100.00
32109;BME280;18624;50.042;8.436;2023-04-07T07:31:58;100328.84;;;7.24;100.00
32109;BME280;18624;50.042;8.436;2023-04-07T07:34:24;100350.72;;;7.55;100.00
32109;BME280;18624;50.042;8.436;2023-04-07T07:36:51;100350.00;;;7.47;100.00
32109;BME280;18624;50.042;8.436;2023-04-07T07:39:17;100150.53;;;6.23;100.00
32109;BME280;18624;50.042;8.436;2023-04-07T07:41:43;100369.38;;;7.56;100.00
32109;BME280;18624;50.042;8.436;2023-04-07T07:44:10;100328.28;;;7.40;100.00
32109;BME280;18624;50.042;8.436;2023-04-07T07:46:36;100315.69;;;7.16;100.00
32109;BME280;18624;50.042;8.436;2023-04-07T07:49:03;100287.41;;;7.02;100.00
32109;BME280;18624;50.042;8.436;2023-04-07T07:51:30;100354.25;;;7.52;100.00
32109;BME280;18624;50.042;8.436;2023-04-07T07:53:57;100369.06;;;7.51;100.00
32109;BME280;18624;50.042;8.436;2023-04-07T07:56:23;100321.41;;;7.28;100.00
32109;BME280;18624;50.042;8.436;2023-04-07T07:58:50;100375.56;;;7.60;100.00
32109;BME280;18624;50.042;8.436;2023-04-07T08:01:16;100366.72;;;7.53;100.00
32109;BME280;18624;50.042;8.436;2023-04-07T08:03:43;100385.69;;;7.64;100.00
32109;BME280;18624;50.042;8.436;2023-04-07T08:06:09;100353.28;;;7.35;100.00
32109;BME280;18624;50.042;8.436;2023-04-07T08:08:37;100365.66;;;7.43;100.00
32109;BME280;18624;50.042;8.436;2023-04-07T08:11:03;100381.47;;;7.55;100.00
32109;BME280;18624;50.042;8.436;2023-04-07T08:13:29;100357.53;;;7.40;100.00
32109;BME280;18624;50.042;8.436;2023-04-07T08:15:56;100321.56;;;7.14;100.00
32109;BME280;18624;50.042;8.436;2023-04-07T08:18:22;100384.22;;;7.55;100.00
32109;BME280;18624;50.042;8.436;2023-04-07T08:20:50;100308.81;;;7.07;100.00
32109;BME280;18624;50.042;8.436;2023-04-07T08:23:16;100346.31;;;7.30;100.00
32109;BME280;18624;50.042;8.436;2023-04-07T08:25:43;100304.13;;;7.08;100.00
32109;BME280;18624;50.042;8.436;2023-04-07T08:28:10;100264.75;;;6.75;100.00
32109;BME280;18624;50.042;8.436;2023-04-07T08:30:36;100334.41;;;7.17;100.00
32109;BME280;18624;50.042;8.436;2023-04-07T08:33:04;100400.06;;;7.68;100.00
32109;BME280;18624;50.042;8.436;2023-04-07T08:35:31;100217.34;;;6.31;100.00
32109;BME280;18624;50.042;8.436;2023-04-07T08:37:57;100410.19;;;7.67;100.00
32109;BME280;18624;50.042;8.436;2023-04-07T08:40:24;100230.72;;;6.52;100.00
32109;BME280;18624;50.042;8.436;2023-04-07T08:42:50;100379.25;;;7.47;100.00
32109;BME280;18624;50.042;8.436;2023-04-07T08:45:18;100285.22;;;6.94;100.00
32109;BME280;18624;50.042;8.436;2023-04-07T08:47:45;100407.72;;;7.80;100.00
32109;BME280;18624;50.042;8.436;2023-04-07T08:50:16;100399.97;;;7.75;100.00
32109;BME280;18624;50.042;8.436;2023-04-07T08:52:44;100339.97;;;7.41;100.00
32109;BME280;18624;50.042;8.436;2023-04-07T08:55:12;100295.56;;;7.06;100.00
32109;BME280;18624;50.042;8.436;2023-04-07T08:57:38;100336.78;;;7.46;100.00
32109;BME280;18624;50.042;8.436;2023-04-07T09:00:06;100341.75;;;7.54;100.00
32109;BME280;18624;50.042;8.436;2023-04-07T09:02:34;100397.38;;;7.95;100.00
32109;BME280;18624;50.042;8.436;2023-04-07T09:05:03;100414.75;;;8.08;100.00
32109;BME280;18624;50.042;8.436;2023-04-07T09:07:31;100302.25;;;7.35;100.00
32109;BME280;18624;50.042;8.436;2023-04-07T09:09:58;100422.94;;;8.08;100.00
32109;BME280;18624;50.042;8.436;2023-04-07T09:12:26;100422.91;;;8.11;100.00
32109;BME280;18624;50.042;8.436;2023-04-07T09:14:53;100412.50;;;8.03;100.00
32109;BME280;18624;50.042;8.436;2023-04-07T09:17:20;100330.50;;;7.52;100.00
32109;BME280;18624;50.042;8.436;2023-04-07T09:19:47;100420.94;;;8.12;100.00
32109;BME280;18624;50.042;8.436;2023-04-07T09:22:14;100416.59;;;8.15;100.00
32109;BME280;18624;50.042;8.436;2023-04-07T09:24:40;100230.72;;;6.94;100.00
32109;BME280;18624;50.042;8.436;2023-04-07T09:27:12;100341.53;;;7.72;100.00
32109;BME280;18624;50.042;8.436;2023-04-07T09:29:43;100376.59;;;8.04;100.00
32109;BME280;18624;50.042;8.436;2023-04-07T09:32:10;100346.91;;;7.79;100.00
32109;BME280;18624;50.042;8.436;2023-04-07T09:34:38;100424.22;;;8.30;100.00
32109;BME280;18624;50.042;8.436;2023-04-07T09:37:07;100262.34;;;7.18;100.00
32109;BME280;18624;50.042;8.436;2023-04-07T09:39:48;100400.72;;;8.06;100.00
32109;BME280;18624;50.042;8.436;2023-04-07T09:42:15;100222.94;;;6.92;100.00
32109;BME280;18624;50.042;8.436;2023-04-07T09:44:43;100395.06;;;7.93;100.00
32109;BME280;18624;50.042;8.436;2023-04-07T09:47:09;100366.41;;;7.78;100.00
32109;BME280;18624;50.042;8.436;2023-04-07T09:49:53;100423.63;;;8.16;100.00
32109;BME280;18624;50.042;8.436;2023-04-07T09:52:47;100425.44;;;8.26;100.00
32109;BME280;18624;50.042;8.436;2023-04-07T09:55:12;100417.03;;;8.13;100.00
32109;BME280;18624;50.042;8.436;2023-04-07T09:57:40;100356.44;;;7.64;100.00
32109;BME280;18624;50.042;8.436;2023-04-07T10:00:08;100254.28;;;7.07;100.00
32109;BME280;18624;50.042;8.436;2023-04-07T10:02:38;100324.16;;;7.59;100.00
32109;BME280;18624;50.042;8.436;2023-04-07T10:05:05;100239.19;;;6.99;100.00
32109;BME280;18624;50.042;8.436;2023-04-07T10:07:32;100339.53;;;7.76;100.00
32109;BME280;18624;50.042;8.436;2023-04-07T10:09:58;100396.69;;;8.18;100.00
32109;BME280;18624;50.042;8.436;2023-04-07T10:12:25;100157.91;;;6.60;100.00
32109;BME280;18624;50.042;8.436;2023-04-07T10:14:53;100402.09;;;8.21;100.00
32109;BME280;18624;50.042;8.436;2023-04-07T10:17:20;100128.53;;;6.44;100.00
32109;BME280;18624;50.042;8.436;2023-04-07T10:19:48;100300.38;;;7.59;100.00
32109;BME280;18624;50.042;8.436;2023-04-07T10:22:16;100155.50;;;6.66;100.00
32109;BME280;18624;50.042;8.436;2023-04-07T10:24:53;100441.06;;;8.56;100.00
32109;BME280;18624;50.042;8.436;2023-04-07T10:27:30;100312.28;;;7.73;100.00
32109;BME280;18624;50.042;8.436;2023-04-07T10:29:57;100360.63;;;8.03;100.00
32109;BME280;18624;50.042;8.436;2023-04-07T10:32:25;100324.41;;;7.72;100.00
32109;BME280;18624;50.042;8.436;2023-04-07T10:37:20;100458.69;;;8.51;100.00
32109;BME280;18624;50.042;8.436;2023-04-07T10:39:49;100458.31;;;8.49;100.00
32109;BME280;18624;50.042;8.436;2023-04-07T10:45:05;100459.97;;;8.43;100.00
32109;BME280;18624;50.042;8.436;2023-04-07T10:47:31;100459.59;;;8.41;100.00
32109;BME280;18624;50.042;8.436;2023-04-07T10:50:20;100461.50;;;8.44;100.00
32109;BME280;18624;50.042;8.436;2023-04-07T10:52:48;100463.00;;;8.49;100.00
32109;BME280;18624;50.042;8.436;2023-04-07T10:58:23;100461.72;;;8.57;100.00
32109;BME280;18624;50.042;8.436;2023-04-07T11:03:28;100461.94;;;8.70;100.00
32109;BME280;18624;50.042;8.436;2023-04-07T11:06:06;100466.91;;;8.75;100.00
32109;BME280;18624;50.042;8.436;2023-04-07T11:08:41;100469.19;;;8.80;100.00
32109;BME280;18624;50.042;8.436;2023-04-07T11:11:09;100451.75;;;8.70;100.00
32109;BME280;18624;50.042;8.436;2023-04-07T11:13:41;100469.47;;;8.85;100.00
32109;BME280;18624;50.042;8.436;2023-04-07T11:16:07;100465.56;;;8.86;100.00
32109;BME280;18624;50.042;8.436;2023-04-07T11:18:35;100462.00;;;8.90;100.00
32109;BME280;18624;50.042;8.436;2023-04-07T11:21:03;100462.66;;;8.97;100.00
32109;BME280;18624;50.042;8.436;2023-04-07T11:23:41;100455.59;;;9.00;100.00
32109;BME280;18624;50.042;8.436;2023-04-07T11:26:09;100419.97;;;8.80;100.00
32109;BME280;18624;50.042;8.436;2023-04-07T11:28:52;100460.13;;;9.10;100.00
32109;BME280;18624;50.042;8.436;2023-04-07T11:31:27;100466.16;;;9.21;100.00
32109;BME280;18624;50.042;8.436;2023-04-07T11:34:04;100463.50;;;9.18;100.00
32109;BME280;18624;50.042;8.436;2023-04-07T11:36:32;100435.72;;;8.96;100.00
32109;BME280;18624;50.042;8.436;2023-04-07T11:39:00;100462.31;;;9.19;100.00
32109;BME280;18624;50.042;8.436;2023-04-07T11:41:29;100463.50;;;9.18;100.00
32109;BME280;18624;50.042;8.436;2023-04-07T11:46:33;100460.94;;;9.30;100.00
32109;BME280;18624;50.042;8.436;2023-04-07T11:49:11;100467.84;;;9.38;100.00
32109;BME280;18624;50.042;8.436;2023-04-07T11:51:39;100465.88;;;9.39;100.00
32109;BME280;18624;50.042;8.436;2023-04-07T11:54:06;100474.91;;;9.36;100.00
32109;BME280;18624;50.042;8.436;2023-04-07T11:56:46;100415.59;;;8.86;100.00
32109;BME280;18624;50.042;8.436;2023-04-07T11:59:23;100474.56;;;9.34;100.00
32109;BME280;18624;50.042;8.436;2023-04-07T12:01:51;100486.69;;;9.33;100.00
32109;BME280;18624;50.042;8.436;2023-04-07T12:04:22;100491.03;;;9.30;100.00
32109;BME280;18624;50.042;8.436;2023-04-07T12:06:49;100486.31;;;9.31;100.00
32109;BME280;18624;50.042;8.436;2023-04-07T12:09:33;100490.91;;;9.37;100.00
32109;BME280;18624;50.042;8.436;2023-04-07T12:12:04;100484.31;;;9.35;100.00
32109;BME280;18624;50.042;8.436;2023-04-07T12:14:32;100493.28;;;9.35;100.00
32109;BME280;18624;50.042;8.436;2023-04-07T12:16:59;100490.53;;;9.35;100.00
32109;BME280;18624;50.042;8.436;2023-04-07T12:19:30;100502.34;;;9.32;100.00
32109;BME280;18624;50.042;8.436;2023-04-07T12:21:59;100496.91;;;9.29;100.00
32109;BME280;18624;50.042;8.436;2023-04-07T12:24:25;100501.63;;;9.28;100.00
32109;BME280;18624;50.042;8.436;2023-04-07T12:26:52;100501.66;;;9.25;100.00
32109;BME280;18624;50.042;8.436;2023-04-07T12:29:18;100496.50;;;9.07;100.00
32109;BME280;18624;50.042;8.436;2023-04-07T12:31:45;100387.16;;;8.29;100.00
32109;BME280;18624;50.042;8.436;2023-04-07T12:34:16;100505.88;;;9.06;100.00
32109;BME280;18624;50.042;8.436;2023-04-07T12:36:42;100508.19;;;9.07;100.00
32109;BME280;18624;50.042;8.436;2023-04-07T12:39:09;100435.16;;;8.57;100.00
32109;BME280;18624;50.042;8.436;2023-04-07T12:41:36;100507.59;;;8.96;100.00
32109;BME280;18624;50.042;8.436;2023-04-07T12:44:04;100511.81;;;9.01;100.00
32109;BME280;18624;50.042;8.436;2023-04-07T12:46:31;100509.00;;;9.04;100.00
32109;BME280;18624;50.042;8.436;2023-04-07T12:48:57;100513.56;;;9.15;100.00
32109;BME280;18624;50.042;8.436;2023-04-07T12:51:24;100516.66;;;9.17;100.00
32109;BME280;18624;50.042;8.436;2023-04-07T12:53:51;100509.59;;;9.19;100.00
32109;BME280;18624;50.042;8.436;2023-04-07T12:56:19;100516.88;;;9.26;100.00
32109;BME280;18624;50.042;8.436;2023-04-07T12:58:47;100519.50;;;9.33;100.00
32109;BME280;18624;50.042;8.436;2023-04-07T13:01:13;100518.84;;;9.25;100.00
32109;BME280;18624;50.042;8.436;2023-04-07T13:03:40;100514.63;;;9.21;100.00
32109;BME280;18624;50.042;8.436;2023-04-07T13:06:07;100519.03;;;9.15;100.00
32109;BME280;18624;50.042;8.436;2023-04-07T13:08:33;100515.41;;;9.21;100.00
32109;BME280;18624;50.042;8.436;2023-04-07T13:11:00;100505.38;;;9.15;100.00
32109;BME280;18624;50.042;8.436;2023-04-07T13:13:26;100511.94;;;9.17;100.00
32109;BME280;18624;50.042;8.436;2023-04-07T13:15:53;100514.19;;;9.22;100.00